Main page
METAR-TAF:

METAR-TAF

Airports :

Nawabshah Airport

Nawabshah, Pakistan

latitude: 26-15N, longitude: 068-22E, elevation: 37 m

Current weather observation

The report was made 52 minutes ago, at 20:00 UTC
Wind 4 kt from the East
Temperature 21°C
Humidity 73%
Pressure 1015 hPa
Visibility: 3000 m
smoke

METAR: OPNH 282000Z 09004KT 3000 FU NSC 21/16 Q1015 NOSIG

Time: 01:52 (20:52 UTC)

Forecast

The report was made 2 hours and 22 minutes ago, at 18:30 UTC
Forecast valid from 28 at 21 UTC to 29 at 06 UTC
Wind 7 kt from the North/Northwest
Visibility: 2000 m
smoke

TAF: OPNH 281830Z 2821/2906 34007KT 2000 FU NSC

Weather observations and forecasts of more than 4000 airports (METAR and TAF reports).

The available stations are represented by yellow and red dots on the map.

Hover mouse over dot to see the name of the station.

Then click to see weather observations and forecasts.

To change the map : click on the green buttons with a black cross to zoom in, on the green button with a dash to zoom out, or on the green arrows for adjacent maps.


METAR-TAF: